• Join FlightAware (Why Join?)
  • Login
  • US Flag 
Gobble Gobble! 
09:15AM EST


 

Airport Tracker/Info


-or-


 

Live Flight TrackerFlight Track Log ✈ JBU1516 ✈ 29-Jul-2013 ✈ KJFK - KSYR

Flight Track Log - Related Links

Times and Time Zones

All times are in EDT time to prevent confusion due to time zone crossing. See the JBU1516 flight status page for this flight to view local times or setup timezone preferences in your user account.

Time Position Orientation Groundspeed Altitude Reporting Facility
EDT Latitude Longitude Course Direction KTS MPH feet Rate Location/Type
05:20PM 40.5833 -73.8167 304° West 182 209 2,400  Level New York TRACON
05:21PM 40.5500 -73.7500 123° Southeast 244 281 5,000 2,160 Climbing New York TRACON
05:22PM 40.8695 -74.0958 311° West  Level FlightAware Approximate
05:22PM 40.5833 -73.6667 62° Northeast 277 319 6,800  Level New York TRACON
05:23PM 40.9274 -74.1805 316° Northwest  Level FlightAware Approximate
05:23PM 40.6333 -73.5833 52° Northeast 305 351 7,000  Level New York TRACON
05:24PM 40.9894 -74.2601 316° Northwest  Level FlightAware Approximate
05:24PM 40.7000 -73.5333 30° Northeast 318 366 9,500  Level New York TRACON
05:25PM 41.0472 -74.3445 304° West  Level FlightAware Approximate
05:25PM 40.7833 -73.5333 360° North 332 382 11,200  Level New York TRACON
05:26PM 40.8833 -73.5833 339° North 360 414 14,100 2,460 Climbing New York TRACON
05:27PM 40.9500 -73.6833 311° West 361 415 16,200 1,500 Climbing New York TRACON
05:28PM 41.0000 -73.8000 300° West 370 426 17,000 360 Climbing New York TRACON
05:29PM 41.0333 -73.9167 291° West 360 414 17,000  Level New York TRACON
05:31PM 41.0911 -74.1244 290° West 361 415 17,000  Level New York Center
05:32PM 41.1308 -74.2586 291° West 361 415 17,000  Level New York Center
05:33PM 41.1650 -74.3678 293° West 354 407 17,000  Level New York Center
05:34PM 41.2028 -74.4994 291° West 354 407 17,000 1,140 Level New York Center
05:35PM 41.2431 -74.6008 298° West 354 407 19,300 2,160 Climbing New York Center
05:36PM 41.3122 -74.7208 308° West 355 409 21,400 1,320 Climbing New York Center
05:37PM 41.3772 -74.8325 308° West 369 425 22,000 300 Climbing New York Center
05:38PM 41.4406 -74.9275 312° West 382 440 22,000  Level New York Center
05:39PM 41.5053 -75.0369 308° West 387 445 22,000  Level New York Center
05:40PM 41.5703 -75.1408 310° West 382 440 22,000  Level New York Center
05:41PM 41.6328 -75.2503 307° West 382 440 22,000  Level New York Center
05:42PM 41.6994 -75.3606 309° West 382 440 22,000  Level New York Center
05:43PM 41.7658 -75.4706 309° West 382 440 22,000  Level New York Center
05:44PM 41.8322 -75.5783 310° West 382 440 22,000  Level New York Center
05:45PM 41.8944 -75.6886 307° West 382 440 22,000 -960 Level New York Center
05:46PM 41.9567 -75.7936 309° West 382 440 20,100 -1,740 Descending New York Center
05:47PM 42.0167 -75.9017 307° West 372 428 18,600 -1,440 Descending New York Center
05:48PM 42.0767 -76.0011 309° West 363 418 17,400 -1,380 Descending New York Center
05:49PM 42.1392 -76.0986 311° West 350 403 15,900 -1,560 Descending New York Center
05:50PM 42.2333 -76.1286 347° North 332 382 14,400 -1,740 Descending New York Center
05:50PM 42.2947 -76.1231 North 372 428 13,400 -1,680 Descending Boston Center
05:51PM 42.3639 -76.1131 North 368 423 12,400 -1,380 Descending Boston Center
05:52PM 42.4706 -76.1025 North 356 410 11,000 -720 Descending Boston Center
05:53PM 42.5564 -76.0878 North 301 346 11,000 -660 Level Boston Center
05:54PM 42.6347 -76.0556 17° North 293 337 9,700 -1,500 Descending Boston Center
05:55PM 42.7067 -76.0203 20° North 293 337 8,200 -1,680 Descending Boston Center
05:56PM 42.7831 -75.9822 20° North 292 336 6,600 -1,260 Descending Boston Center
05:57PM 42.8633 -75.9444 19° North 280 322 5,600 -900 Descending Boston Center
05:58PM 42.9269 -75.9111 21° North 233 268 4,800 -1,140 Descending Boston Center
05:59PM 42.9906 -75.8750 23° Northeast 239 275 3,400 -840 Descending Boston Center
06:00PM 43.0392 -75.8522 19° North 208 239 3,200 -360 Descending Boston Center
06:01PM 43.0906 -75.8778 340° North 177 204 2,700 -300 Descending Boston Center
06:02PM 43.1139 -75.9303 301° West 165 190 2,600 -360 Descending Boston Center
06:03PM 43.1144 -75.9814 271° West 126 145 2,100 -660 Descending Boston Center
06:04PM 43.1108 -76.0269 264° West 125 144 1,400 -720 Descending Boston Center
06:05PM 43.1117 -76.0725 271° West 129 148 800 -720 Descending Boston Center